createdAt,value
2019-05-19T00:00:43.223Z,48.35
2019-05-19T00:03:13.341Z,54.30
2019-05-19T00:05:43.098Z,55.95
2019-05-19T00:08:13.830Z,55.05
2019-05-19T00:10:43.937Z,51.45
2019-05-19T00:13:14.178Z,51.70
2019-05-19T00:15:43.940Z,56.90
2019-05-19T00:18:13.820Z,58.85
2019-05-19T00:20:43.585Z,60.92
2019-05-19T00:23:13.702Z,62.38
2019-05-19T00:25:43.706Z,57.50
2019-05-19T00:28:13.594Z,61.28
2019-05-19T00:30:43.232Z,62.60
2019-05-19T00:33:12.990Z,68.07
2019-05-19T00:35:42.625Z,62.85
2019-05-19T00:38:12.265Z,74.05
2019-05-19T00:40:42.264Z,59.25
2019-05-19T00:43:11.918Z,66.10
2019-05-19T00:45:42.991Z,72.37
2019-05-19T00:48:12.629Z,82.05
2019-05-19T00:50:42.395Z,82.92
2019-05-19T00:53:12.269Z,70.75
2019-05-19T00:55:42.390Z,70.90
2019-05-19T00:58:13.349Z,64.03
2019-05-19T01:00:43.474Z,66.92
2019-05-19T01:03:13.598Z,64.82
2019-05-19T01:05:43.603Z,66.12
2019-05-19T01:08:13.364Z,62.35
2019-05-19T01:10:43.006Z,66.07
2019-05-19T01:13:12.880Z,59.27
2019-05-19T01:15:42.879Z,66.42
2019-05-19T01:18:13.116Z,61.75
2019-05-19T01:20:43.602Z,59.48
2019-05-19T01:23:13.487Z,56.13
2019-05-19T01:25:43.609Z,56.20
2019-05-19T01:28:13.848Z,61.23
2019-05-19T01:30:43.962Z,58.73
2019-05-19T01:33:13.607Z,68.62
2019-05-19T01:35:43.732Z,59.67
2019-05-19T01:38:13.365Z,65.97
2019-05-19T01:40:43.008Z,67.42
2019-05-19T01:43:13.006Z,67.95
2019-05-19T01:45:43.036Z,70.52
2019-05-19T01:48:13.018Z,75.75
2019-05-19T01:50:42.655Z,77.37
2019-05-19T01:53:12.531Z,94.60
2019-05-19T01:55:42.175Z,82.88
2019-05-19T01:58:11.945Z,79.53
2019-05-19T02:00:42.058Z,92.47
2019-05-19T02:03:11.820Z,79.70
2019-05-19T02:05:41.834Z,75.42
2019-05-19T02:08:11.936Z,77.25
2019-05-19T02:10:42.060Z,71.37
2019-05-19T02:13:12.296Z,69.35
2019-05-19T02:15:41.942Z,73.42
2019-05-19T02:18:11.705Z,70.03
2019-05-19T02:20:41.367Z,75.55
2019-05-19T02:23:11.221Z,68.42
2019-05-19T02:25:41.346Z,78.28
2019-05-19T02:28:11.586Z,66.35
2019-05-19T02:30:41.350Z,74.95
2019-05-19T02:33:11.126Z,72.12
2019-05-19T02:35:40.877Z,78.00
2019-05-19T02:38:10.867Z,78.10
2019-05-19T02:40:44.588Z,75.78
2019-05-19T02:43:15.667Z,73.70
2019-05-19T02:45:46.988Z,71.33
2019-05-19T02:48:19.158Z,76.12
2019-05-19T02:50:52.884Z,74.05
2019-05-19T02:53:22.876Z,75.55
2019-05-19T02:55:53.607Z,82.05
2019-05-19T02:58:23.713Z,83.52
2019-05-19T03:00:53.718Z,83.25
2019-05-19T03:03:23.356Z,92.57
2019-05-19T03:05:53.478Z,85.30
2019-05-19T03:08:23.360Z,99.77
2019-05-19T03:10:53.629Z,93.72
2019-05-19T03:13:23.479Z,91.95
2019-05-19T03:15:53.239Z,95.90
2019-05-19T03:18:23.001Z,93.12
2019-05-19T03:21:09.815Z,94.50
2019-05-19T03:23:24.685Z,84.83
2019-05-19T03:25:54.682Z,89.65
2019-05-19T03:28:24.801Z,84.92
2019-05-19T03:30:56.264Z,82.02
2019-05-19T03:33:27.704Z,82.35
2019-05-19T03:35:58.055Z,85.70
2019-05-19T03:38:28.292Z,80.75
2019-05-19T03:40:58.168Z,76.75
2019-05-19T03:43:27.929Z,75.03
2019-05-19T03:45:57.814Z,78.65
2019-05-19T03:48:27.583Z,73.80
2019-05-19T03:50:57.212Z,69.45
2019-05-19T03:53:27.335Z,71.15
2019-05-19T03:55:56.978Z,70.60
2019-05-19T03:58:26.975Z,66.07
2019-05-19T04:00:56.860Z,65.28
2019-05-19T04:03:26.654Z,58.35
2019-05-19T04:05:56.513Z,54.40
2019-05-19T04:08:26.258Z,51.10
2019-05-19T04:10:55.901Z,49.33
2019-05-19T04:13:25.677Z,50.17
2019-05-19T04:15:55.428Z,53.80
2019-05-19T04:18:25.308Z,54.38
2019-05-19T04:20:54.944Z,56.95
2019-05-19T04:23:24.702Z,54.40
2019-05-19T04:25:54.722Z,51.00
2019-05-19T04:28:24.823Z,48.60
2019-05-19T04:30:54.705Z,48.75
2019-05-19T04:33:24.464Z,43.65
2019-05-19T04:35:57.438Z,40.12
2019-05-19T04:38:25.669Z,39.75
2019-05-19T04:40:55.553Z,40.05
2019-05-19T04:43:25.315Z,40.08
2019-05-19T04:45:55.078Z,40.38
2019-05-19T04:48:25.074Z,37.15
2019-05-19T04:50:54.955Z,39.83
2019-05-19T04:53:24.958Z,38.15
2019-05-19T04:55:54.716Z,38.42
2019-05-19T04:58:24.357Z,45.05
2019-05-19T05:00:54.600Z,42.17
2019-05-19T05:03:24.360Z,41.42
2019-05-19T05:05:54.122Z,42.23
2019-05-19T05:08:30.028Z,39.80
2019-05-19T05:10:55.197Z,41.40
2019-05-19T05:13:25.206Z,37.60
2019-05-19T05:15:55.442Z,44.70
2019-05-19T05:18:25.211Z,41.92
2019-05-19T05:20:55.202Z,45.20
2019-05-19T05:23:25.328Z,45.75
2019-05-19T05:25:55.087Z,45.05
2019-05-19T05:28:25.088Z,48.10
2019-05-19T05:30:55.334Z,46.70
2019-05-19T05:33:24.968Z,46.85
2019-05-19T05:35:54.967Z,48.05
2019-05-19T05:38:25.216Z,50.73
2019-05-19T05:40:55.091Z,50.90
2019-05-19T05:43:24.851Z,48.75
2019-05-19T05:45:54.974Z,47.93
2019-05-19T05:48:25.221Z,46.83
2019-05-19T05:50:55.454Z,46.50
2019-05-19T05:53:25.094Z,45.67
2019-05-19T05:55:55.228Z,44.88
2019-05-19T05:58:25.214Z,46.63
2019-05-19T06:00:55.454Z,43.40
2019-05-19T06:03:25.337Z,43.48
2019-05-19T06:05:55.218Z,45.33
2019-05-19T06:08:24.859Z,48.60
2019-05-19T06:10:55.099Z,45.03
2019-05-19T06:13:25.222Z,47.35
2019-05-19T06:15:55.461Z,39.88
2019-05-19T06:18:25.464Z,42.80
2019-05-19T06:20:55.100Z,42.25
2019-05-19T06:23:24.743Z,37.70
2019-05-19T06:25:54.867Z,40.03
2019-05-19T06:28:24.747Z,39.92
2019-05-19T06:31:12.865Z,40.10
2019-05-19T06:33:42.957Z,40.48
2019-05-19T06:36:12.628Z,40.25
2019-05-19T06:38:42.395Z,39.05
2019-05-19T06:41:12.271Z,44.42
2019-05-19T06:43:42.395Z,40.92
2019-05-19T06:46:12.162Z,37.70
2019-05-19T06:48:42.275Z,42.08
2019-05-19T06:51:12.395Z,38.73
2019-05-19T06:53:42.035Z,37.28
2019-05-19T06:56:11.797Z,42.05
2019-05-19T06:58:41.921Z,42.85
2019-05-19T07:01:12.399Z,40.55
2019-05-19T07:03:42.054Z,43.42
2019-05-19T07:06:12.277Z,38.70
2019-05-19T07:08:42.042Z,43.70
2019-05-19T07:11:12.278Z,41.00
2019-05-19T07:13:42.068Z,37.83
2019-05-19T07:16:11.920Z,36.68
2019-05-19T07:18:41.684Z,37.53
2019-05-19T07:21:12.413Z,36.17
2019-05-19T07:23:42.522Z,38.95
2019-05-19T07:26:12.769Z,35.25
2019-05-19T07:28:43.005Z,36.75
2019-05-19T07:31:12.898Z,35.88
2019-05-19T07:33:42.539Z,39.33
2019-05-19T07:36:12.656Z,38.85
2019-05-19T07:38:42.890Z,37.83
2019-05-19T07:41:13.135Z,38.00
2019-05-19T07:43:43.250Z,38.58
2019-05-19T07:46:13.138Z,39.50
2019-05-19T07:48:42.774Z,35.83
2019-05-19T07:51:13.012Z,35.70
2019-05-19T07:53:43.457Z,39.15
2019-05-19T07:56:13.526Z,35.23
2019-05-19T07:58:43.626Z,35.17
2019-05-19T08:01:13.862Z,33.92
2019-05-19T08:03:43.498Z,35.45
2019-05-19T08:06:13.381Z,36.30
2019-05-19T08:08:43.140Z,33.28
2019-05-19T08:11:13.265Z,33.65
2019-05-19T08:13:43.389Z,36.13
2019-05-19T08:16:13.383Z,35.33
2019-05-19T08:18:43.411Z,33.20
2019-05-19T08:21:14.838Z,35.58
2019-05-19T08:23:59.183Z,35.20
2019-05-19T08:26:20.012Z,32.83
2019-05-19T08:28:49.759Z,32.88
2019-05-19T08:31:19.628Z,31.57
2019-05-19T08:33:49.417Z,33.25
2019-05-19T08:36:19.751Z,32.53
2019-05-19T08:38:51.082Z,33.92
2019-05-19T08:41:21.570Z,34.15
2019-05-19T08:43:54.912Z,32.88
2019-05-19T08:46:26.329Z,31.10
2019-05-19T08:48:59.360Z,36.13
2019-05-19T08:51:53.835Z,35.50
2019-05-19T08:54:25.529Z,35.30
2019-05-19T08:56:56.494Z,30.00
2019-05-19T08:59:26.874Z,30.52
2019-05-19T09:01:58.488Z,31.65
2019-05-19T09:04:29.566Z,31.50
2019-05-19T09:06:59.498Z,31.17
2019-05-19T09:09:29.247Z,31.20
2019-05-19T09:11:59.251Z,30.72
2019-05-19T09:14:29.477Z,31.60
2019-05-19T09:17:01.614Z,31.60
2019-05-19T09:19:31.400Z,30.05
2019-05-19T09:22:01.162Z,30.17
2019-05-19T09:24:31.198Z,30.70
2019-05-19T09:27:01.286Z,29.77
2019-05-19T09:29:31.408Z,32.63
2019-05-19T09:32:02.331Z,29.65
2019-05-19T09:34:32.128Z,26.57
2019-05-19T09:37:02.370Z,31.93
2019-05-19T09:39:33.687Z,32.05
2019-05-19T09:42:06.569Z,25.45
2019-05-19T09:44:36.206Z,23.92
2019-05-19T09:47:06.093Z,28.67
2019-05-19T09:49:36.213Z,27.95
2019-05-19T09:52:10.530Z,27.05
2019-05-19T09:54:45.370Z,30.48
2019-05-19T09:57:12.219Z,27.00
2019-05-19T09:59:42.213Z,25.68
2019-05-19T10:02:11.978Z,26.00
2019-05-19T10:04:41.616Z,24.87
2019-05-19T10:07:11.658Z,23.47
2019-05-19T10:10:02.985Z,25.45
2019-05-19T10:12:33.102Z,25.50
2019-05-19T10:15:03.362Z,22.93
2019-05-19T10:17:33.217Z,24.63
2019-05-19T10:20:03.343Z,30.00
2019-05-19T10:22:33.689Z,25.05
2019-05-19T10:25:20.282Z,22.05
2019-05-19T10:27:35.658Z,23.15
2019-05-19T10:30:08.023Z,23.07
2019-05-19T10:32:37.908Z,23.77
2019-05-19T10:35:08.267Z,20.77
2019-05-19T10:37:38.504Z,22.07
2019-05-19T10:40:08.632Z,22.65
2019-05-19T10:42:38.866Z,22.00
2019-05-19T10:45:10.786Z,21.93
2019-05-19T10:47:41.027Z,25.97
2019-05-19T10:50:11.878Z,19.75
2019-05-19T10:52:41.653Z,16.62
2019-05-19T10:55:11.651Z,18.05
2019-05-19T10:57:41.767Z,16.80
2019-05-19T11:00:12.114Z,17.37
2019-05-19T11:02:47.998Z,15.60
2019-05-19T11:05:18.359Z,17.25
2019-05-19T11:07:48.720Z,18.77
2019-05-19T11:10:18.720Z,17.27
2019-05-19T11:12:50.400Z,17.35
2019-05-19T11:15:21.476Z,16.32
2019-05-19T11:17:52.686Z,17.98
2019-05-19T11:20:22.835Z,19.27
2019-05-19T11:22:52.775Z,21.33
2019-05-19T11:25:33.381Z,19.42
2019-05-19T11:27:54.604Z,17.82
2019-05-19T11:30:24.392Z,16.23
2019-05-19T11:32:54.363Z,16.77
2019-05-19T11:35:24.484Z,19.50
2019-05-19T11:37:54.608Z,19.42
2019-05-19T11:40:24.729Z,17.15
2019-05-19T11:42:54.483Z,16.70
2019-05-19T11:45:24.607Z,17.48
2019-05-19T11:47:54.487Z,17.10
2019-05-19T11:50:24.647Z,15.85
2019-05-19T11:52:54.847Z,18.07
2019-05-19T11:55:24.744Z,16.70
2019-05-19T11:57:54.730Z,16.40
2019-05-19T12:00:24.849Z,17.45
2019-05-19T12:02:54.732Z,17.52
2019-05-19T12:05:24.529Z,16.20
2019-05-19T12:07:54.626Z,15.98
2019-05-19T12:10:24.735Z,14.50
2019-05-19T12:12:54.614Z,14.20
2019-05-19T12:15:24.994Z,15.85
2019-05-19T12:17:54.734Z,14.45
2019-05-19T12:20:24.500Z,16.48
2019-05-19T12:22:54.618Z,15.08
2019-05-19T12:25:24.739Z,14.78
2019-05-19T12:27:54.389Z,13.90
2019-05-19T12:30:24.494Z,12.73
2019-05-19T12:32:54.139Z,13.72
2019-05-19T12:35:24.029Z,12.35
2019-05-19T12:37:53.787Z,12.78
2019-05-19T12:40:23.829Z,12.98
2019-05-19T12:42:53.992Z,11.48
2019-05-19T12:45:24.356Z,12.35
2019-05-19T12:47:54.742Z,11.55
2019-05-19T12:50:24.865Z,11.78
2019-05-19T12:52:54.989Z,13.28
2019-05-19T12:55:25.241Z,14.33
2019-05-19T12:57:54.987Z,10.32
2019-05-19T13:00:25.353Z,11.30
2019-05-19T13:02:55.474Z,11.43
2019-05-19T13:05:25.712Z,11.50
2019-05-19T13:07:55.472Z,11.60
2019-05-19T13:10:25.349Z,10.65
2019-05-19T13:12:55.352Z,10.15
2019-05-19T13:15:25.234Z,9.93
2019-05-19T13:17:55.477Z,14.38
2019-05-19T13:20:25.235Z,12.45
2019-05-19T13:22:54.876Z,10.18
2019-05-19T13:25:25.119Z,10.98
2019-05-19T13:27:54.769Z,11.18
2019-05-19T13:30:24.398Z,11.43
2019-05-19T13:32:54.164Z,14.35
2019-05-19T13:35:24.397Z,10.50
2019-05-19T13:37:54.039Z,10.93
2019-05-19T13:40:24.166Z,10.03
2019-05-19T13:42:54.283Z,15.72
2019-05-19T13:45:24.525Z,11.65
2019-05-19T13:47:54.526Z,11.15
2019-05-19T13:50:24.767Z,11.93
2019-05-19T13:52:54.534Z,10.38
2019-05-19T13:55:24.406Z,10.55
2019-05-19T13:57:54.289Z,13.72
2019-05-19T14:00:24.169Z,11.85
2019-05-19T14:02:54.291Z,9.88
2019-05-19T14:05:24.172Z,10.65
2019-05-19T14:07:53.933Z,12.63
2019-05-19T14:10:23.814Z,10.32
2019-05-19T14:12:53.577Z,10.60
2019-05-19T14:15:24.064Z,11.93
2019-05-19T14:17:54.176Z,12.20
2019-05-19T14:20:24.415Z,11.03
2019-05-19T14:22:54.173Z,13.05
2019-05-19T14:25:24.067Z,10.45
2019-05-19T14:27:53.954Z,10.58
2019-05-19T14:30:23.702Z,10.32
2019-05-19T14:32:53.583Z,10.85
2019-05-19T14:35:23.833Z,13.78
2019-05-19T14:37:53.850Z,10.78
2019-05-19T14:40:23.593Z,9.55
2019-05-19T14:42:55.406Z,14.25
2019-05-19T14:45:25.766Z,10.95
2019-05-19T14:47:56.948Z,12.88
2019-05-19T14:50:26.708Z,12.00
2019-05-19T14:52:57.366Z,12.78
2019-05-19T14:55:27.550Z,12.45
2019-05-19T14:57:57.667Z,15.38
2019-05-19T15:00:27.881Z,12.03
2019-05-19T15:02:57.910Z,12.60
2019-05-19T15:05:28.150Z,13.03
2019-05-19T15:07:57.914Z,7.47
2019-05-19T15:10:28.029Z,8.80
2019-05-19T15:12:57.799Z,7.03
2019-05-19T15:15:28.032Z,5.45
2019-05-19T15:17:58.276Z,8.53
2019-05-19T15:20:28.392Z,7.05
2019-05-19T15:22:58.637Z,10.32
2019-05-19T15:25:28.525Z,7.95
2019-05-19T15:28:00.858Z,5.58
2019-05-19T15:30:30.198Z,4.92
2019-05-19T15:33:00.448Z,5.22
2019-05-19T15:35:30.077Z,5.28
2019-05-19T15:37:59.957Z,5.03
2019-05-19T15:40:29.732Z,3.58
2019-05-19T15:42:59.840Z,4.50
2019-05-19T15:45:29.844Z,5.15
2019-05-19T15:47:59.483Z,5.00
2019-05-19T15:50:29.723Z,5.80
2019-05-19T15:53:00.923Z,9.05
2019-05-19T15:55:31.050Z,5.00
2019-05-19T15:58:15.516Z,8.08
2019-05-19T16:00:33.208Z,7.78
2019-05-19T16:03:02.874Z,7.40
2019-05-19T16:05:32.969Z,6.37
2019-05-19T16:08:03.112Z,5.03
2019-05-19T16:10:32.847Z,6.35
2019-05-19T16:13:02.491Z,6.12
2019-05-19T16:15:32.613Z,7.60
2019-05-19T16:18:02.851Z,5.72
2019-05-19T16:20:32.613Z,5.35
2019-05-19T16:23:02.974Z,10.13
2019-05-19T16:25:32.975Z,8.23
2019-05-19T16:28:02.853Z,8.90
2019-05-19T16:30:32.974Z,8.03
2019-05-19T16:33:03.216Z,8.78
2019-05-19T16:35:33.347Z,9.13
2019-05-19T16:38:08.984Z,11.43
2019-05-19T16:40:38.743Z,14.95
2019-05-19T16:43:08.621Z,7.95
2019-05-19T16:45:38.388Z,6.40
2019-05-19T16:48:08.502Z,5.90
2019-05-19T16:50:38.262Z,5.70
2019-05-19T16:53:08.503Z,7.00
2019-05-19T16:55:38.622Z,7.42
2019-05-19T16:58:20.575Z,5.60
2019-05-19T17:00:40.545Z,6.03
2019-05-19T17:03:10.429Z,7.78
2019-05-19T17:05:40.190Z,5.45
2019-05-19T17:08:10.332Z,7.30
2019-05-19T17:10:40.309Z,6.97
2019-05-19T17:13:10.554Z,6.28
2019-05-19T17:15:40.556Z,5.53
2019-05-19T17:18:10.558Z,7.03
2019-05-19T17:20:40.438Z,7.03
2019-05-19T17:23:10.557Z,8.33
2019-05-19T17:25:40.435Z,5.67
2019-05-19T17:28:10.938Z,6.22
2019-05-19T17:30:40.940Z,8.23
2019-05-19T17:33:10.951Z,6.20
2019-05-19T17:35:41.523Z,5.03
2019-05-19T17:38:12.242Z,6.80
2019-05-19T17:40:41.971Z,9.23
2019-05-19T17:43:12.240Z,11.25
2019-05-19T17:45:42.358Z,7.62
2019-05-19T17:48:25.667Z,9.40
2019-05-19T17:50:44.185Z,7.37
2019-05-19T17:53:14.042Z,7.80
2019-05-19T17:55:46.331Z,9.58
2019-05-19T17:58:16.456Z,7.63
2019-05-19T18:00:46.206Z,7.70
2019-05-19T18:03:16.447Z,7.35
2019-05-19T18:05:46.689Z,7.00
2019-05-19T18:08:16.930Z,7.00
2019-05-19T18:10:46.691Z,8.83
2019-05-19T18:13:16.573Z,9.98
2019-05-19T18:15:46.689Z,8.43
2019-05-19T18:18:16.814Z,8.80
2019-05-19T18:20:47.242Z,10.82
2019-05-19T18:23:17.291Z,7.05
2019-05-19T18:25:47.172Z,9.75
2019-05-19T18:28:17.299Z,8.43
2019-05-19T18:30:47.075Z,7.33
2019-05-19T18:33:17.055Z,9.03
2019-05-19T18:35:46.937Z,7.17
2019-05-19T18:38:17.064Z,8.03
2019-05-19T18:40:46.696Z,11.55
2019-05-19T18:43:16.577Z,9.00
2019-05-19T18:45:46.826Z,9.23
2019-05-19T18:48:17.326Z,9.38
2019-05-19T18:50:47.070Z,7.50
2019-05-19T18:53:16.961Z,14.87
2019-05-19T18:55:46.959Z,10.18
2019-05-19T18:58:16.840Z,8.70
2019-05-19T19:00:46.708Z,10.40
2019-05-19T19:03:16.827Z,10.00
2019-05-19T19:05:48.616Z,10.58
2019-05-19T19:08:18.632Z,11.38
2019-05-19T19:10:48.510Z,12.95
2019-05-19T19:13:18.271Z,14.13
2019-05-19T19:15:48.152Z,10.58
2019-05-19T19:18:17.915Z,10.40
2019-05-19T19:20:47.551Z,14.00
2019-05-19T19:23:17.312Z,13.88
2019-05-19T19:25:47.434Z,11.00
2019-05-19T19:28:17.556Z,11.22
2019-05-19T19:30:47.437Z,13.70
2019-05-19T19:33:17.195Z,9.85
2019-05-19T19:35:47.317Z,11.57
2019-05-19T19:38:17.074Z,14.43
2019-05-19T19:40:46.722Z,11.40
2019-05-19T19:43:16.362Z,12.23
2019-05-19T19:45:46.824Z,10.95
2019-05-19T19:48:16.608Z,10.35
2019-05-19T19:50:46.369Z,13.22
2019-05-19T19:53:16.122Z,13.50
2019-05-19T19:55:46.006Z,11.57
2019-05-19T19:58:16.274Z,10.53
2019-05-19T20:00:46.853Z,12.68
2019-05-19T20:03:16.610Z,15.98
2019-05-19T20:05:46.493Z,11.55
2019-05-19T20:08:16.270Z,12.43
2019-05-19T20:10:46.377Z,14.50
2019-05-19T20:13:16.009Z,19.62
2019-05-19T20:15:46.006Z,14.18
2019-05-19T20:18:16.136Z,15.90
2019-05-19T20:20:46.372Z,19.10
2019-05-19T20:23:16.133Z,18.82
2019-05-19T20:25:46.612Z,22.30
2019-05-19T20:28:16.375Z,21.57
2019-05-19T20:30:46.497Z,29.48
2019-05-19T20:33:16.618Z,24.72
2019-05-19T20:35:46.498Z,25.30
2019-05-19T20:38:16.616Z,21.27
2019-05-19T20:40:46.859Z,19.32
2019-05-19T20:43:16.625Z,18.92
2019-05-19T20:45:46.860Z,14.60
2019-05-19T20:48:16.999Z,14.95
2019-05-19T20:50:46.748Z,16.95
2019-05-19T20:53:17.215Z,16.45
2019-05-19T20:55:47.106Z,19.62
2019-05-19T20:58:18.805Z,16.37
2019-05-19T21:00:51.184Z,18.70
2019-05-19T21:03:20.106Z,17.95
2019-05-19T21:05:50.350Z,16.60
2019-05-19T21:08:20.469Z,20.25
2019-05-19T21:10:50.589Z,17.57
2019-05-19T21:13:23.955Z,18.07
2019-05-19T21:15:54.294Z,19.85
2019-05-19T21:18:26.327Z,19.87
2019-05-19T21:20:56.356Z,18.70
2019-05-19T21:23:25.994Z,18.40
2019-05-19T21:25:57.685Z,17.90
2019-05-19T21:28:29.117Z,17.55
2019-05-19T21:31:05.688Z,21.37
2019-05-19T21:33:34.875Z,19.02
2019-05-19T21:36:05.487Z,23.10
2019-05-19T21:38:35.476Z,20.95
2019-05-19T21:41:05.240Z,24.18
2019-05-19T21:43:34.883Z,20.32
2019-05-19T21:46:06.456Z,19.17
2019-05-19T21:48:36.564Z,20.72
2019-05-19T21:51:06.321Z,20.50
2019-05-19T21:53:36.201Z,19.80
2019-05-19T21:56:06.573Z,19.87
2019-05-19T21:58:36.355Z,22.87
2019-05-19T22:01:06.342Z,25.85
2019-05-19T22:03:36.774Z,24.43
2019-05-19T22:06:07.298Z,22.17
2019-05-19T22:08:37.187Z,23.73
2019-05-19T22:11:07.446Z,24.57
2019-05-19T22:13:37.657Z,23.18
2019-05-19T22:16:13.100Z,24.43
2019-05-19T22:18:39.119Z,22.22
2019-05-19T22:21:09.178Z,23.95
2019-05-19T22:23:39.795Z,22.58
2019-05-19T22:26:09.966Z,24.10
2019-05-19T22:28:39.785Z,27.87
2019-05-19T22:31:09.721Z,25.05
2019-05-19T22:33:39.581Z,28.57
2019-05-19T22:36:09.585Z,21.50
2019-05-19T22:38:58.756Z,21.30
2019-05-19T22:41:29.035Z,20.90
2019-05-19T22:43:58.926Z,19.95
2019-05-19T22:46:28.656Z,21.50
2019-05-19T22:48:58.659Z,22.80
2019-05-19T22:51:28.781Z,24.57
2019-05-19T22:53:58.424Z,24.37
2019-05-19T22:56:28.661Z,28.62
2019-05-19T22:58:58.544Z,20.55
2019-05-19T23:01:28.667Z,20.62
2019-05-19T23:03:58.424Z,21.82
2019-05-19T23:06:28.306Z,22.65
2019-05-19T23:08:58.074Z,28.52
2019-05-19T23:11:28.190Z,28.50
2019-05-19T23:13:58.316Z,33.53
2019-05-19T23:16:30.124Z,26.85
2019-05-19T23:19:00.233Z,31.02
2019-05-19T23:21:30.347Z,28.65
2019-05-19T23:24:00.348Z,21.77
2019-05-19T23:26:30.350Z,22.37
2019-05-19T23:29:00.238Z,21.73
2019-05-19T23:31:29.871Z,22.95
2019-05-19T23:33:59.752Z,22.20
2019-05-19T23:36:29.396Z,27.90
2019-05-19T23:38:59.515Z,23.83
2019-05-19T23:41:29.154Z,22.07
2019-05-19T23:43:58.800Z,20.48
2019-05-19T23:46:28.556Z,24.92
2019-05-19T23:48:58.457Z,23.85
2019-05-19T23:51:28.563Z,20.15
2019-05-19T23:53:58.440Z,22.00
2019-05-19T23:56:28.558Z,24.77
2019-05-19T23:58:58.329Z,22.17
